createdAt,value
2023-02-25T00:01:06.793Z,7.29
2023-02-25T00:06:14.005Z,6.81
2023-02-25T00:11:18.407Z,6.75
2023-02-25T00:16:23.532Z,6.82
2023-02-25T00:21:29.654Z,7.07
2023-02-25T00:26:32.862Z,6.57
2023-02-25T00:31:36.079Z,6.16
2023-02-25T00:36:41.050Z,6.65
2023-02-25T00:41:44.568Z,6.40
2023-02-25T00:46:47.758Z,6.14
2023-02-25T00:51:52.472Z,6.26
2023-02-25T00:56:55.603Z,6.17
2023-02-25T01:01:58.967Z,6.16
2023-02-25T01:07:03.892Z,6.42
2023-02-25T01:12:07.746Z,6.35
2023-02-25T01:17:10.844Z,6.49
2023-02-25T01:22:15.477Z,6.63
2023-02-25T01:27:18.698Z,6.54
2023-02-25T01:32:21.986Z,6.62
2023-02-25T01:37:26.702Z,6.23
2023-02-25T01:42:29.863Z,5.78
2023-02-25T01:47:37.509Z,5.80
2023-02-25T01:52:45.103Z,5.67
2023-02-25T01:57:49.386Z,5.78
2023-02-25T02:02:52.590Z,5.72
2023-02-25T02:07:57.367Z,5.72
2023-02-25T02:13:00.605Z,5.72
2023-02-25T02:18:05.847Z,5.95
2023-02-25T02:23:40.714Z,5.70
2023-02-25T02:29:34.073Z,5.72
2023-02-25T02:34:48.244Z,5.86
2023-02-25T02:40:05.832Z,6.05
2023-02-25T02:45:14.915Z,5.90
2023-02-25T02:50:29.004Z,5.83
2023-02-25T02:55:37.785Z,5.83
2023-02-25T03:00:44.141Z,5.23
2023-02-25T03:05:53.373Z,5.27
2023-02-25T03:10:56.591Z,5.73
2023-02-25T03:16:02.049Z,5.76
2023-02-25T03:21:10.118Z,5.76
2023-02-25T03:26:21.331Z,5.77
2023-02-25T03:31:29.591Z,5.70
2023-02-25T03:36:39.136Z,5.58
2023-02-25T03:41:46.741Z,5.22
2023-02-25T03:46:51.271Z,5.03
2023-02-25T03:51:58.973Z,4.83
2023-02-25T03:57:03.611Z,4.88
2023-02-25T04:02:07.160Z,4.81
2023-02-25T04:07:11.729Z,4.83
2023-02-25T04:12:15.737Z,5.43
2023-02-25T04:17:19.474Z,5.58
2023-02-25T04:22:24.179Z,5.67
2023-02-25T04:27:27.596Z,5.89
2023-02-25T04:32:30.799Z,5.88
2023-02-25T04:37:35.427Z,5.74
2023-02-25T04:42:38.572Z,5.94
2023-02-25T04:47:41.964Z,5.85
2023-02-25T04:52:46.514Z,6.10
2023-02-25T04:57:49.645Z,6.01
2023-02-25T05:02:53.168Z,5.90
2023-02-25T05:07:57.695Z,5.87
2023-02-25T05:13:00.841Z,5.96
2023-02-25T05:18:04.050Z,6.14
2023-02-25T05:23:08.639Z,5.90
2023-02-25T05:28:13.019Z,5.92
2023-02-25T05:33:17.775Z,5.88
2023-02-25T05:38:22.285Z,5.84
2023-02-25T05:43:25.432Z,6.00
2023-02-25T05:48:29.098Z,5.86
2023-02-25T05:53:33.835Z,5.90
2023-02-25T05:58:37.180Z,5.98
2023-02-25T06:03:40.400Z,6.06
2023-02-25T06:08:45.566Z,5.91
2023-02-25T06:13:49.837Z,5.85
2023-02-25T06:18:53.432Z,5.83
2023-02-25T06:23:58.004Z,5.89
2023-02-25T06:29:01.147Z,5.87
2023-02-25T06:34:04.606Z,5.85
2023-02-25T06:39:09.873Z,6.00
2023-02-25T06:44:14.870Z,6.07
2023-02-25T06:49:19.214Z,5.98
2023-02-25T06:54:24.454Z,5.86
2023-02-25T06:59:27.876Z,5.85
2023-02-25T07:04:31.049Z,6.01
2023-02-25T07:09:35.663Z,5.75
2023-02-25T07:14:38.841Z,5.75
2023-02-25T07:19:41.976Z,5.68
2023-02-25T07:24:46.801Z,5.89
2023-02-25T07:29:49.964Z,6.04
2023-02-25T07:34:53.088Z,6.00
2023-02-25T07:39:59.864Z,6.04
2023-02-25T07:45:03.000Z,6.05
2023-02-25T07:50:06.893Z,6.16
2023-02-25T07:55:12.575Z,6.14
2023-02-25T08:00:16.318Z,6.06
2023-02-25T08:05:21.969Z,6.14
2023-02-25T08:10:26.601Z,6.01
2023-02-25T08:15:29.804Z,5.84
2023-02-25T08:20:32.935Z,5.66
2023-02-25T08:25:37.485Z,5.58
2023-02-25T08:30:40.694Z,5.58
2023-02-25T08:35:43.985Z,5.59
2023-02-25T08:40:48.623Z,5.56
2023-02-25T08:45:51.852Z,5.59
2023-02-25T08:50:55.762Z,5.68
2023-02-25T08:56:03.566Z,6.02
2023-02-25T09:01:13.115Z,6.18
2023-02-25T09:06:16.656Z,6.73
2023-02-25T09:11:21.995Z,6.88
2023-02-25T09:16:25.455Z,6.98
2023-02-25T09:21:28.588Z,7.20
2023-02-25T09:26:33.160Z,6.92
2023-02-25T09:31:37.810Z,7.04
2023-02-25T09:36:41.104Z,7.02
2023-02-25T09:41:53.405Z,6.98
2023-02-25T09:47:03.687Z,6.92
2023-02-25T09:52:14.307Z,7.01
2023-02-25T09:57:23.559Z,7.07
2023-02-25T10:02:37.582Z,7.09
2023-02-25T10:07:51.239Z,7.17
2023-02-25T10:13:00.695Z,7.01
2023-02-25T10:18:27.295Z,7.14
2023-02-25T10:23:44.988Z,7.18
2023-02-25T10:28:55.178Z,7.22
2023-02-25T10:33:59.796Z,7.24
2023-02-25T10:39:03.076Z,7.20
2023-02-25T10:44:07.647Z,7.31
2023-02-25T10:49:17.983Z,7.45
2023-02-25T10:54:24.721Z,7.60
2023-02-25T10:59:33.486Z,7.77
2023-02-25T11:04:39.580Z,7.63
2023-02-25T11:09:42.729Z,7.73
2023-02-25T11:14:47.394Z,7.92
2023-02-25T11:19:59.485Z,8.04
2023-02-25T11:25:06.135Z,8.04
2023-02-25T11:30:20.836Z,8.04
2023-02-25T11:35:30.763Z,7.91
2023-02-25T11:40:41.984Z,8.02
2023-02-25T11:46:02.824Z,8.34
2023-02-25T11:51:14.556Z,8.37
2023-02-25T11:56:25.801Z,8.65
2023-02-25T12:01:43.847Z,8.67
2023-02-25T12:07:11.481Z,8.82
2023-02-25T12:12:46.876Z,9.23
2023-02-25T12:18:21.297Z,9.31
2023-02-25T12:23:56.996Z,9.08
2023-02-25T12:29:14.364Z,9.44
2023-02-25T12:34:36.269Z,9.52
2023-02-25T12:39:50.842Z,9.63
2023-02-25T12:45:25.291Z,9.68
2023-02-25T12:50:41.420Z,9.79
2023-02-25T12:56:01.750Z,10.01
2023-02-25T13:01:51.803Z,10.07
2023-02-25T13:07:29.600Z,9.92
2023-02-25T13:12:48.769Z,10.34
2023-02-25T13:18:24.117Z,10.34
2023-02-25T13:24:00.316Z,10.58
2023-02-25T14:20:15.728Z,10.72
2023-02-25T14:25:29.358Z,11.03
2023-02-25T14:30:42.602Z,11.09
2023-02-25T20:22:32.565Z,8.25
2023-02-25T22:00:04.494Z,7.55
2023-02-25T22:05:16.033Z,7.47
2023-02-25T22:10:26.923Z,7.44
2023-02-25T22:15:38.307Z,7.47
2023-02-25T22:20:48.260Z,7.49
2023-02-25T22:26:00.690Z,7.70
2023-02-25T22:31:17.092Z,7.77
2023-02-25T22:36:23.556Z,7.73
2023-02-25T22:41:30.337Z,7.76
